sensor_id;sensor_type;location;lat;lon;timestamp;pressure;altitude;pressure_sealevel;temperature;humidity
8069;BME280;4077;43.702;24.896;2023-04-10T00:01:19;99788.25;;;5.53;100.00
8069;BME280;4077;43.702;24.896;2023-04-10T00:03:44;99786.59;;;5.55;100.00
8069;BME280;4077;43.702;24.896;2023-04-10T00:06:10;99784.25;;;5.61;100.00
8069;BME280;4077;43.702;24.896;2023-04-10T00:08:36;99794.19;;;5.52;100.00
8069;BME280;4077;43.702;24.896;2023-04-10T00:11:02;99790.13;;;5.34;100.00
8069;BME280;4077;43.702;24.896;2023-04-10T00:13:28;99777.47;;;5.15;100.00
8069;BME280;4077;43.702;24.896;2023-04-10T00:15:53;99784.44;;;5.19;100.00
8069;BME280;4077;43.702;24.896;2023-04-10T00:18:19;99782.59;;;5.15;100.00
8069;BME280;4077;43.702;24.896;2023-04-10T00:20:44;99785.84;;;5.11;100.00
8069;BME280;4077;43.702;24.896;2023-04-10T00:23:10;99765.13;;;5.05;100.00
8069;BME280;4077;43.702;24.896;2023-04-10T00:25:35;99772.91;;;5.08;100.00
8069;BME280;4077;43.702;24.896;2023-04-10T00:28:01;99775.13;;;4.99;100.00
8069;BME280;4077;43.702;24.896;2023-04-10T00:30:26;99765.53;;;4.93;100.00
8069;BME280;4077;43.702;24.896;2023-04-10T00:32:51;99769.72;;;4.91;100.00
8069;BME280;4077;43.702;24.896;2023-04-10T00:35:17;99774.28;;;4.98;100.00
8069;BME280;4077;43.702;24.896;2023-04-10T00:37:42;99764.09;;;5.00;100.00
8069;BME280;4077;43.702;24.896;2023-04-10T00:40:08;99759.41;;;4.88;100.00
8069;BME280;4077;43.702;24.896;2023-04-10T00:42:34;99766.94;;;4.85;100.00
8069;BME280;4077;43.702;24.896;2023-04-10T00:44:59;99754.34;;;4.89;100.00
8069;BME280;4077;43.702;24.896;2023-04-10T00:47:26;99754.63;;;4.97;100.00
8069;BME280;4077;43.702;24.896;2023-04-10T00:49:52;99752.59;;;4.88;100.00
8069;BME280;4077;43.702;24.896;2023-04-10T00:52:18;99746.44;;;4.83;100.00
8069;BME280;4077;43.702;24.896;2023-04-10T00:54:43;99752.66;;;4.90;100.00
8069;BME280;4077;43.702;24.896;2023-04-10T00:57:09;99756.06;;;4.90;100.00
8069;BME280;4077;43.702;24.896;2023-04-10T00:59:35;99750.38;;;4.75;100.00
8069;BME280;4077;43.702;24.896;2023-04-10T01:02:01;99745.03;;;4.69;100.00
8069;BME280;4077;43.702;24.896;2023-04-10T01:04:27;99746.88;;;4.73;100.00
8069;BME280;4077;43.702;24.896;2023-04-10T01:07:09;99740.09;;;4.74;100.00
8069;BME280;4077;43.702;24.896;2023-04-10T01:15:12;99743.28;;;4.68;100.00
8069;BME280;4077;43.702;24.896;2023-04-10T01:20:12;99734.56;;;4.63;100.00
8069;BME280;4077;43.702;24.896;2023-04-10T01:28:20;99734.06;;;4.51;100.00
8069;BME280;4077;43.702;24.896;2023-04-10T01:30:58;99723.75;;;4.48;100.00
8069;BME280;4077;43.702;24.896;2023-04-10T01:33:39;99729.09;;;4.54;100.00
8069;BME280;4077;43.702;24.896;2023-04-10T01:36:09;99734.56;;;4.63;100.00
8069;BME280;4077;43.702;24.896;2023-04-10T01:38:39;99736.44;;;4.67;100.00
8069;BME280;4077;43.702;24.896;2023-04-10T01:41:07;99733.88;;;4.67;100.00
8069;BME280;4077;43.702;24.896;2023-04-10T01:43:33;99725.31;;;4.66;100.00
8069;BME280;4077;43.702;24.896;2023-04-10T01:46:01;99734.44;;;4.60;100.00
8069;BME280;4077;43.702;24.896;2023-04-10T01:48:27;99734.31;;;4.57;100.00
8069;BME280;4077;43.702;24.896;2023-04-10T01:50:54;99744.69;;;4.60;100.00
8069;BME280;4077;43.702;24.896;2023-04-10T01:53:20;99730.78;;;4.53;100.00
8069;BME280;4077;43.702;24.896;2023-04-10T01:55:47;99728.28;;;4.55;100.00
8069;BME280;4077;43.702;24.896;2023-04-10T01:58:14;99737.00;;;4.60;100.00
8069;BME280;4077;43.702;24.896;2023-04-10T02:00:41;99737.06;;;4.61;100.00
8069;BME280;4077;43.702;24.896;2023-04-10T02:03:07;99735.22;;;4.59;100.00
8069;BME280;4077;43.702;24.896;2023-04-10T02:08:35;99727.66;;;4.60;100.00
8069;BME280;4077;43.702;24.896;2023-04-10T02:11:30;99733.63;;;4.61;100.00
8069;BME280;4077;43.702;24.896;2023-04-10T02:14:00;99739.31;;;4.54;100.00
8069;BME280;4077;43.702;24.896;2023-04-10T02:16:28;99734.22;;;4.54;100.00
8069;BME280;4077;43.702;24.896;2023-04-10T02:18:58;99725.72;;;4.55;100.00
8069;BME280;4077;43.702;24.896;2023-04-10T02:21:25;99733.41;;;4.55;100.00
8069;BME280;4077;43.702;24.896;2023-04-10T02:23:51;99727.13;;;4.47;100.00
8069;BME280;4077;43.702;24.896;2023-04-10T02:26:17;99731.56;;;4.52;100.00
8069;BME280;4077;43.702;24.896;2023-04-10T02:28:42;99734.13;;;4.52;100.00
8069;BME280;4077;43.702;24.896;2023-04-10T02:31:07;99726.59;;;4.55;100.00
8069;BME280;4077;43.702;24.896;2023-04-10T02:33:33;99722.59;;;4.62;100.00
8069;BME280;4077;43.702;24.896;2023-04-10T02:36:00;99731.72;;;4.78;100.00
8069;BME280;4077;43.702;24.896;2023-04-10T02:38:26;99730.25;;;4.84;100.00
8069;BME280;4077;43.702;24.896;2023-04-10T02:40:51;99730.59;;;4.93;100.00
8069;BME280;4077;43.702;24.896;2023-04-10T02:43:17;99713.66;;;4.96;100.00
8069;BME280;4077;43.702;24.896;2023-04-10T02:45:43;99730.16;;;5.04;100.00
8069;BME280;4077;43.702;24.896;2023-04-10T02:48:08;99733.81;;;5.10;100.00
8069;BME280;4077;43.702;24.896;2023-04-10T02:50:35;99725.03;;;5.04;100.00
8069;BME280;4077;43.702;24.896;2023-04-10T02:53:00;99728.56;;;5.07;100.00
8069;BME280;4077;43.702;24.896;2023-04-10T02:55:26;99724.09;;;5.02;100.00
8069;BME280;4077;43.702;24.896;2023-04-10T02:57:51;99731.25;;;5.10;100.00
8069;BME280;4077;43.702;24.896;2023-04-10T03:00:17;99722.47;;;5.04;100.00
8069;BME280;4077;43.702;24.896;2023-04-10T03:02:44;99731.28;;;5.12;100.00
8069;BME280;4077;43.702;24.896;2023-04-10T03:05:09;99727.91;;;5.13;100.00
8069;BME280;4077;43.702;24.896;2023-04-10T03:07:35;99721.94;;;5.12;100.00
8069;BME280;4077;43.702;24.896;2023-04-10T03:10:01;99714.97;;;5.08;100.00
8069;BME280;4077;43.702;24.896;2023-04-10T03:12:26;99722.69;;;5.10;100.00
8069;BME280;4077;43.702;24.896;2023-04-10T03:14:52;99726.41;;;5.18;100.00
8069;BME280;4077;43.702;24.896;2023-04-10T03:17:17;99730.00;;;5.23;100.00
8069;BME280;4077;43.702;24.896;2023-04-10T03:19:43;99726.50;;;5.21;100.00
8069;BME280;4077;43.702;24.896;2023-04-10T03:22:08;99722.06;;;5.15;100.00
8069;BME280;4077;43.702;24.896;2023-04-10T03:24:35;99727.31;;;5.20;100.00
8069;BME280;4077;43.702;24.896;2023-04-10T03:27:02;99729.06;;;5.21;100.00
8069;BME280;4077;43.702;24.896;2023-04-10T03:29:27;99726.41;;;5.18;100.00
8069;BME280;4077;43.702;24.896;2023-04-10T03:31:53;99736.44;;;5.36;100.00
8069;BME280;4077;43.702;24.896;2023-04-10T03:34:18;99739.19;;;5.42;100.00
8069;BME280;4077;43.702;24.896;2023-04-10T03:36:44;99735.91;;;5.44;100.00
8069;BME280;4077;43.702;24.896;2023-04-10T03:39:10;99734.03;;;5.40;100.00
8069;BME280;4077;43.702;24.896;2023-04-10T03:41:36;99745.91;;;5.38;100.00
8069;BME280;4077;43.702;24.896;2023-04-10T03:44:01;99738.00;;;5.32;100.00
8069;BME280;4077;43.702;24.896;2023-04-10T03:46:28;99745.69;;;5.32;100.00
8069;BME280;4077;43.702;24.896;2023-04-10T03:48:53;99750.94;;;5.35;100.00
8069;BME280;4077;43.702;24.896;2023-04-10T03:51:18;99745.00;;;5.36;100.00
8069;BME280;4077;43.702;24.896;2023-04-10T03:53:44;99739.94;;;5.38;100.00
8069;BME280;4077;43.702;24.896;2023-04-10T03:56:10;99739.75;;;5.33;100.00
8069;BME280;4077;43.702;24.896;2023-04-10T03:58:35;99743.41;;;5.40;100.00
8069;BME280;4077;43.702;24.896;2023-04-10T04:01:01;99750.38;;;5.44;100.00
8069;BME280;4077;43.702;24.896;2023-04-10T04:03:26;99749.75;;;5.49;100.00
8069;BME280;4077;43.702;24.896;2023-04-10T04:05:52;99752.44;;;5.54;100.00
8069;BME280;4077;43.702;24.896;2023-04-10T04:08:17;99763.78;;;5.61;100.00
8069;BME280;4077;43.702;24.896;2023-04-10T04:10:43;99756.16;;;5.62;100.00
8069;BME280;4077;43.702;24.896;2023-04-10T04:13:08;99755.41;;;5.65;100.00
8069;BME280;4077;43.702;24.896;2023-04-10T04:15:34;99757.78;;;5.60;100.00
8069;BME280;4077;43.702;24.896;2023-04-10T04:17:59;99759.69;;;5.66;100.00
8069;BME280;4077;43.702;24.896;2023-04-10T04:20:25;99755.53;;;5.69;100.00
8069;BME280;4077;43.702;24.896;2023-04-10T04:22:50;99764.44;;;5.79;100.00
8069;BME280;4077;43.702;24.896;2023-04-10T04:25:16;99745.25;;;5.68;100.00
8069;BME280;4077;43.702;24.896;2023-04-10T04:27:42;99767.00;;;5.79;100.00
8069;BME280;4077;43.702;24.896;2023-04-10T04:30:08;99767.47;;;5.91;100.00
8069;BME280;4077;43.702;24.896;2023-04-10T04:32:33;99770.03;;;5.91;100.00
8069;BME280;4077;43.702;24.896;2023-04-10T04:34:59;99772.84;;;5.99;100.00
8069;BME280;4077;43.702;24.896;2023-04-10T04:37:24;99774.78;;;6.06;100.00
8069;BME280;4077;43.702;24.896;2023-04-10T04:39:50;99780.44;;;6.21;100.00
8069;BME280;4077;43.702;24.896;2023-04-10T04:42:15;99774.81;;;6.32;100.00
8069;BME280;4077;43.702;24.896;2023-04-10T04:44:41;99780.38;;;6.45;100.00
8069;BME280;4077;43.702;24.896;2023-04-10T04:47:06;99774.63;;;6.52;100.00
8069;BME280;4077;43.702;24.896;2023-04-10T04:49:32;99783.44;;;6.61;100.00
8069;BME280;4077;43.702;24.896;2023-04-10T04:51:57;99774.34;;;6.72;100.00
8069;BME280;4077;43.702;24.896;2023-04-10T04:54:22;99788.00;;;6.98;100.00
8069;BME280;4077;43.702;24.896;2023-04-10T04:56:48;99784.03;;;7.07;100.00
8069;BME280;4077;43.702;24.896;2023-04-10T04:59:13;99783.66;;;7.24;100.00
8069;BME280;4077;43.702;24.896;2023-04-10T05:01:39;99796.28;;;7.46;100.00
8069;BME280;4077;43.702;24.896;2023-04-10T05:04:05;99786.22;;;7.54;100.00
8069;BME280;4077;43.702;24.896;2023-04-10T05:06:30;99792.75;;;7.73;100.00
8069;BME280;4077;43.702;24.896;2023-04-10T05:08:56;99786.28;;;7.87;100.00
8069;BME280;4077;43.702;24.896;2023-04-10T05:11:21;99773.75;;;7.99;100.00
8069;BME280;4077;43.702;24.896;2023-04-10T05:13:47;99803.97;;;8.08;100.00
8069;BME280;4077;43.702;24.896;2023-04-10T05:16:12;99793.34;;;8.27;100.00
8069;BME280;4077;43.702;24.896;2023-04-10T05:18:38;99794.72;;;8.46;100.00
8069;BME280;4077;43.702;24.896;2023-04-10T05:21:03;99807.81;;;8.57;100.00
8069;BME280;4077;43.702;24.896;2023-04-10T05:23:29;99798.50;;;8.60;100.00
8069;BME280;4077;43.702;24.896;2023-04-10T05:25:54;99806.59;;;8.77;100.00
8069;BME280;4077;43.702;24.896;2023-04-10T05:28:20;99814.00;;;8.99;100.00
8069;BME280;4077;43.702;24.896;2023-04-10T05:30:46;99824.69;;;9.18;100.00
8069;BME280;4077;43.702;24.896;2023-04-10T05:33:12;99823.13;;;9.24;100.00
8069;BME280;4077;43.702;24.896;2023-04-10T05:35:37;99829.53;;;9.42;100.00
8069;BME280;4077;43.702;24.896;2023-04-10T05:38:03;99832.44;;;9.57;100.00
8069;BME280;4077;43.702;24.896;2023-04-10T05:40:28;99821.69;;;9.78;100.00
8069;BME280;4077;43.702;24.896;2023-04-10T05:42:54;99831.66;;;10.05;100.00
8069;BME280;4077;43.702;24.896;2023-04-10T05:45:19;99829.38;;;10.20;100.00
8069;BME280;4077;43.702;24.896;2023-04-10T05:47:45;99835.94;;;10.50;100.00
8069;BME280;4077;43.702;24.896;2023-04-10T05:50:10;99842.63;;;10.88;100.00
8069;BME280;4077;43.702;24.896;2023-04-10T05:52:36;99834.31;;;11.08;100.00
8069;BME280;4077;43.702;24.896;2023-04-10T05:55:02;99847.81;;;11.50;100.00
8069;BME280;4077;43.702;24.896;2023-04-10T05:57:28;99848.97;;;11.72;94.91
8069;BME280;4077;43.702;24.896;2023-04-10T05:59:54;99850.00;;;11.81;92.94
8069;BME280;4077;43.702;24.896;2023-04-10T06:02:19;99855.66;;;12.28;91.56
8069;BME280;4077;43.702;24.896;2023-04-10T06:04:45;99849.66;;;12.29;87.06
8069;BME280;4077;43.702;24.896;2023-04-10T06:07:11;99844.34;;;12.15;87.43
8069;BME280;4077;43.702;24.896;2023-04-10T06:09:36;99850.81;;;12.60;87.81
8069;BME280;4077;43.702;24.896;2023-04-10T06:12:02;99853.63;;;12.84;87.75
8069;BME280;4077;43.702;24.896;2023-04-10T06:14:27;99845.00;;;12.88;89.13
8069;BME280;4077;43.702;24.896;2023-04-10T06:16:53;99847.78;;;13.13;87.09
8069;BME280;4077;43.702;24.896;2023-04-10T06:19:18;99852.34;;;13.49;83.87
8069;BME280;4077;43.702;24.896;2023-04-10T06:21:44;99862.13;;;14.13;79.46
8069;BME280;4077;43.702;24.896;2023-04-10T06:24:09;99856.22;;;14.86;75.17
8069;BME280;4077;43.702;24.896;2023-04-10T06:26:36;99878.56;;;15.97;70.25
8069;BME280;4077;43.702;24.896;2023-04-10T06:29:01;99885.09;;;16.74;62.90
8069;BME280;4077;43.702;24.896;2023-04-10T06:31:27;99877.91;;;17.04;60.59
8069;BME280;4077;43.702;24.896;2023-04-10T06:33:52;99884.81;;;17.95;57.72
8069;BME280;4077;43.702;24.896;2023-04-10T06:36:18;99894.88;;;18.27;55.75
8069;BME280;4077;43.702;24.896;2023-04-10T06:38:43;99904.13;;;19.08;54.52
8069;BME280;4077;43.702;24.896;2023-04-10T06:41:09;99903.59;;;18.88;51.71
8069;BME280;4077;43.702;24.896;2023-04-10T06:43:35;99903.69;;;18.82;51.85
8069;BME280;4077;43.702;24.896;2023-04-10T06:46:05;99891.78;;;17.95;54.00
8069;BME280;4077;43.702;24.896;2023-04-10T06:48:32;99885.81;;;16.96;56.01
8069;BME280;4077;43.702;24.896;2023-04-10T06:50:57;99872.44;;;16.04;58.38
8069;BME280;4077;43.702;24.896;2023-04-10T06:53:26;99876.13;;;15.39;60.97
8069;BME280;4077;43.702;24.896;2023-04-10T06:55:52;99871.81;;;14.70;63.20
8069;BME280;4077;43.702;24.896;2023-04-10T06:58:17;99868.25;;;14.29;66.42
8069;BME280;4077;43.702;24.896;2023-04-10T07:00:43;99866.47;;;14.12;68.01
8069;BME280;4077;43.702;24.896;2023-04-10T07:03:08;99873.31;;;13.92;68.66
8069;BME280;4077;43.702;24.896;2023-04-10T07:05:33;99863.78;;;13.86;68.53
8069;BME280;4077;43.702;24.896;2023-04-10T07:11:21;99878.66;;;14.29;69.24
8069;BME280;4077;43.702;24.896;2023-04-10T07:13:46;99870.94;;;14.64;69.21
8069;BME280;4077;43.702;24.896;2023-04-10T07:16:13;99870.06;;;15.18;66.52
8069;BME280;4077;43.702;24.896;2023-04-10T07:18:38;99883.84;;;15.81;63.54
8069;BME280;4077;43.702;24.896;2023-04-10T07:21:09;99883.53;;;16.47;61.64
8069;BME280;4077;43.702;24.896;2023-04-10T07:23:36;99864.78;;;17.16;59.86
8069;BME280;4077;43.702;24.896;2023-04-10T07:26:02;99884.44;;;17.50;57.34
8069;BME280;4077;43.702;24.896;2023-04-10T07:28:27;99899.03;;;17.71;56.60
8069;BME280;4077;43.702;24.896;2023-04-10T07:30:53;99887.19;;;17.34;57.11
8069;BME280;4077;43.702;24.896;2023-04-10T07:33:18;99893.34;;;17.28;57.83
8069;BME280;4077;43.702;24.896;2023-04-10T07:35:43;99893.38;;;17.25;57.23
8069;BME280;4077;43.702;24.896;2023-04-10T07:38:10;99884.00;;;17.04;58.41
8069;BME280;4077;43.702;24.896;2023-04-10T07:40:36;99881.69;;;16.60;59.41
8069;BME280;4077;43.702;24.896;2023-04-10T07:43:01;99876.75;;;16.14;60.75
8069;BME280;4077;43.702;24.896;2023-04-10T07:45:26;99871.69;;;15.77;62.28
8069;BME280;4077;43.702;24.896;2023-04-10T07:47:52;99878.69;;;15.66;62.39
8069;BME280;4077;43.702;24.896;2023-04-10T07:50:18;99870.03;;;15.46;62.60
8069;BME280;4077;43.702;24.896;2023-04-10T07:52:43;99872.66;;;15.20;64.60
8069;BME280;4077;43.702;24.896;2023-04-10T07:55:09;99868.34;;;15.20;65.29
8069;BME280;4077;43.702;24.896;2023-04-10T07:57:34;99868.31;;;15.26;65.11
8069;BME280;4077;43.702;24.896;2023-04-10T08:00:00;99864.81;;;15.37;66.36
8069;BME280;4077;43.702;24.896;2023-04-10T08:02:25;99870.06;;;15.26;64.89
8069;BME280;4077;43.702;24.896;2023-04-10T08:04:51;99871.78;;;15.28;65.22
8069;BME280;4077;43.702;24.896;2023-04-10T08:07:18;99867.50;;;15.04;65.48
8069;BME280;4077;43.702;24.896;2023-04-10T08:09:45;99872.69;;;15.04;66.83
8069;BME280;4077;43.702;24.896;2023-04-10T08:12:10;99875.28;;;15.03;66.50
8069;BME280;4077;43.702;24.896;2023-04-10T08:14:36;99869.22;;;14.80;66.97
8069;BME280;4077;43.702;24.896;2023-04-10T08:17:01;99848.41;;;14.50;66.47
8069;BME280;4077;43.702;24.896;2023-04-10T08:19:27;99860.44;;;14.22;68.51
8069;BME280;4077;43.702;24.896;2023-04-10T08:21:52;99860.34;;;13.93;70.23
8069;BME280;4077;43.702;24.896;2023-04-10T08:24:17;99858.59;;;13.89;72.65
8069;BME280;4077;43.702;24.896;2023-04-10T08:26:45;99847.34;;;13.83;73.06
8069;BME280;4077;43.702;24.896;2023-04-10T08:29:10;99861.13;;;13.79;73.10
8069;BME280;4077;43.702;24.896;2023-04-10T08:31:36;99862.94;;;13.87;74.99
8069;BME280;4077;43.702;24.896;2023-04-10T08:34:01;99854.31;;;14.05;75.63
8069;BME280;4077;43.702;24.896;2023-04-10T08:36:28;99854.41;;;14.39;74.58
8069;BME280;4077;43.702;24.896;2023-04-10T08:38:55;99861.34;;;14.40;70.00
8069;BME280;4077;43.702;24.896;2023-04-10T08:41:21;99853.59;;;14.46;73.00
8069;BME280;4077;43.702;24.896;2023-04-10T08:43:49;99850.16;;;14.64;72.77
8069;BME280;4077;43.702;24.896;2023-04-10T08:46:15;99852.75;;;14.68;71.59
8069;BME280;4077;43.702;24.896;2023-04-10T08:48:52;99844.09;;;14.63;72.58
8069;BME280;4077;43.702;24.896;2023-04-10T08:51:20;99836.28;;;14.53;72.49
8069;BME280;4077;43.702;24.896;2023-04-10T08:53:49;99837.16;;;14.65;73.23
8069;BME280;4077;43.702;24.896;2023-04-10T08:56:17;99846.69;;;14.82;73.29
8069;BME280;4077;43.702;24.896;2023-04-10T08:58:43;99845.81;;;14.95;71.78
8069;BME280;4077;43.702;24.896;2023-04-10T09:01:09;99841.50;;;14.98;71.89
8069;BME280;4077;43.702;24.896;2023-04-10T09:03:36;99844.94;;;15.07;69.42
8069;BME280;4077;43.702;24.896;2023-04-10T09:06:03;99838.00;;;15.18;70.14
8069;BME280;4077;43.702;24.896;2023-04-10T09:08:28;99838.88;;;15.24;69.46
8069;BME280;4077;43.702;24.896;2023-04-10T09:10:54;99824.97;;;15.25;69.24
8069;BME280;4077;43.702;24.896;2023-04-10T09:13:40;99834.44;;;15.54;69.13
8069;BME280;4077;43.702;24.896;2023-04-10T09:16:06;99826.63;;;15.54;67.44
8069;BME280;4077;43.702;24.896;2023-04-10T09:21:09;99821.47;;;15.39;66.85
8069;BME280;4077;43.702;24.896;2023-04-10T09:23:35;99824.06;;;15.46;66.61
8069;BME280;4077;43.702;24.896;2023-04-10T09:26:05;99814.44;;;15.80;66.35
8069;BME280;4077;43.702;24.896;2023-04-10T09:29:05;99809.84;;;16.22;65.10
8069;BME280;4077;43.702;24.896;2023-04-10T09:31:33;99812.19;;;16.59;62.80
8069;BME280;4077;43.702;24.896;2023-04-10T09:34:20;99825.44;;;17.34;59.91
8069;BME280;4077;43.702;24.896;2023-04-10T09:36:58;99812.78;;;17.76;58.43
8069;BME280;4077;43.702;24.896;2023-04-10T09:39:35;99827.28;;;18.60;56.34
8069;BME280;4077;43.702;24.896;2023-04-10T09:42:01;99819.56;;;18.51;54.39
8069;BME280;4077;43.702;24.896;2023-04-10T09:44:35;99824.00;;;18.47;53.98
8069;BME280;4077;43.702;24.896;2023-04-10T09:49:53;99797.13;;;16.94;58.13
8069;BME280;4077;43.702;24.896;2023-04-10T09:52:27;99800.44;;;17.13;57.90
8069;BME280;4077;43.702;24.896;2023-04-10T09:54:55;99797.78;;;17.18;58.83
8069;BME280;4077;43.702;24.896;2023-04-10T09:57:21;99794.97;;;17.36;58.67
8069;BME280;4077;43.702;24.896;2023-04-10T09:59:52;99789.69;;;17.41;57.84
8069;BME280;4077;43.702;24.896;2023-04-10T10:02:20;99787.94;;;17.44;56.69
8069;BME280;4077;43.702;24.896;2023-04-10T10:04:48;99777.53;;;17.40;57.65
8069;BME280;4077;43.702;24.896;2023-04-10T10:07:15;99786.22;;;17.43;57.45
8069;BME280;4077;43.702;24.896;2023-04-10T10:09:41;99775.75;;;17.43;57.57
8069;BME280;4077;43.702;24.896;2023-04-10T10:12:09;99786.00;;;17.59;56.87
8069;BME280;4077;43.702;24.896;2023-04-10T10:14:42;99781.56;;;17.67;56.11
8069;BME280;4077;43.702;24.896;2023-04-10T10:17:10;99775.41;;;17.74;56.51
8069;BME280;4077;43.702;24.896;2023-04-10T10:19:44;99769.34;;;17.72;55.97
8069;BME280;4077;43.702;24.896;2023-04-10T10:22:15;99772.78;;;17.74;55.98
8069;BME280;4077;43.702;24.896;2023-04-10T10:24:45;99766.75;;;17.67;55.63
8069;BME280;4077;43.702;24.896;2023-04-10T10:27:17;99748.66;;;17.54;56.65
8069;BME280;4077;43.702;24.896;2023-04-10T10:29:46;99758.75;;;17.81;56.93
8069;BME280;4077;43.702;24.896;2023-04-10T10:32:16;99750.19;;;17.73;55.33
8069;BME280;4077;43.702;24.896;2023-04-10T10:34:43;99746.06;;;17.52;55.67
8069;BME280;4077;43.702;24.896;2023-04-10T10:37:09;99740.34;;;17.21;55.48
8069;BME280;4077;43.702;24.896;2023-04-10T10:45:16;99730.31;;;16.84;55.78
8069;BME280;4077;43.702;24.896;2023-04-10T10:47:51;99727.78;;;16.78;56.59
8069;BME280;4077;43.702;24.896;2023-04-10T10:50:17;99720.13;;;16.54;57.27
8069;BME280;4077;43.702;24.896;2023-04-10T10:52:48;99723.63;;;16.53;57.90
8069;BME280;4077;43.702;24.896;2023-04-10T10:58:08;99718.28;;;16.68;57.44
8069;BME280;4077;43.702;24.896;2023-04-10T11:05:55;99705.78;;;17.01;56.31
8069;BME280;4077;43.702;24.896;2023-04-10T11:08:38;99703.41;;;16.79;55.71
8069;BME280;4077;43.702;24.896;2023-04-10T11:11:22;99705.34;;;16.57;54.70
8069;BME280;4077;43.702;24.896;2023-04-10T11:16:45;99691.59;;;16.40;56.42
8069;BME280;4077;43.702;24.896;2023-04-10T11:19:11;99682.94;;;16.41;56.61
8069;BME280;4077;43.702;24.896;2023-04-10T11:24:29;99685.59;;;16.33;53.92
8069;BME280;4077;43.702;24.896;2023-04-10T11:27:46;99679.34;;;16.51;55.06
8069;BME280;4077;43.702;24.896;2023-04-10T11:30:31;99682.66;;;16.72;54.56
8069;BME280;4077;43.702;24.896;2023-04-10T11:32:58;99673.03;;;16.78;52.75
8069;BME280;4077;43.702;24.896;2023-04-10T11:35:24;99670.16;;;17.01;51.52
8069;BME280;4077;43.702;24.896;2023-04-10T11:37:50;99671.78;;;17.11;51.78
8069;BME280;4077;43.702;24.896;2023-04-10T11:40:17;99670.72;;;17.26;52.40
8069;BME280;4077;43.702;24.896;2023-04-10T11:42:42;99664.41;;;17.42;51.58
8069;BME280;4077;43.702;24.896;2023-04-10T11:45:24;99668.19;;;17.83;50.88
8069;BME280;4077;43.702;24.896;2023-04-10T11:47:51;99657.03;;;17.70;50.22
8069;BME280;4077;43.702;24.896;2023-04-10T11:50:18;99666.66;;;17.68;50.08
8069;BME280;4077;43.702;24.896;2023-04-10T11:52:43;99661.78;;;17.42;50.55
8069;BME280;4077;43.702;24.896;2023-04-10T11:55:09;99655.00;;;17.29;50.81
8069;BME280;4077;43.702;24.896;2023-04-10T11:57:34;99651.59;;;17.26;50.50
8069;BME280;4077;43.702;24.896;2023-04-10T12:00:00;99651.69;;;17.18;49.33
8069;BME280;4077;43.702;24.896;2023-04-10T12:02:25;99644.88;;;17.06;49.33
8069;BME280;4077;43.702;24.896;2023-04-10T12:04:56;99641.97;;;17.29;48.86
8069;BME280;4077;43.702;24.896;2023-04-10T12:07:23;99634.13;;;17.31;48.86
8069;BME280;4077;43.702;24.896;2023-04-10T12:09:56;99635.97;;;17.24;48.93
8069;BME280;4077;43.702;24.896;2023-04-10T12:12:33;99627.97;;;17.35;49.13
8069;BME280;4077;43.702;24.896;2023-04-10T12:15:00;99622.56;;;17.50;48.01
8069;BME280;4077;43.702;24.896;2023-04-10T12:17:25;99621.34;;;17.74;47.73
8069;BME280;4077;43.702;24.896;2023-04-10T12:19:52;99614.84;;;17.98;47.88
8069;BME280;4077;43.702;24.896;2023-04-10T12:22:18;99610.44;;;18.01;47.36
8069;BME280;4077;43.702;24.896;2023-04-10T12:24:51;99615.84;;;17.91;47.79
8069;BME280;4077;43.702;24.896;2023-04-10T12:27:18;99609.09;;;17.79;48.08
8069;BME280;4077;43.702;24.896;2023-04-10T12:29:45;99606.16;;;17.40;49.57
8069;BME280;4077;43.702;24.896;2023-04-10T12:32:11;99603.13;;;17.08;49.96
8069;BME280;4077;43.702;24.896;2023-04-10T12:34:37;99586.09;;;16.79;50.95
8069;BME280;4077;43.702;24.896;2023-04-10T12:37:02;99584.44;;;16.74;51.67
8069;BME280;4077;43.702;24.896;2023-04-10T12:39:28;99567.97;;;16.70;52.39
8069;BME280;4077;43.702;24.896;2023-04-10T12:44:55;99583.78;;;17.24;51.39
8069;BME280;4077;43.702;24.896;2023-04-10T12:47:22;99567.97;;;17.36;49.60
8069;BME280;4077;43.702;24.896;2023-04-10T12:50:07;99574.75;;;17.46;49.04
8069;BME280;4077;43.702;24.896;2023-04-10T12:52:33;99575.06;;;17.25;50.00
8069;BME280;4077;43.702;24.896;2023-04-10T12:57:38;99552.28;;;16.76;51.37
8069;BME280;4077;43.702;24.896;2023-04-10T13:00:05;99545.44;;;16.63;51.47
8069;BME280;4077;43.702;24.896;2023-04-10T13:02:30;99549.72;;;16.67;52.63
8069;BME280;4077;43.702;24.896;2023-04-10T13:04:56;99549.72;;;16.67;51.29
8069;BME280;4077;43.702;24.896;2023-04-10T13:07:21;99560.19;;;16.64;50.50
8069;BME280;4077;43.702;24.896;2023-04-10T13:09:47;99546.25;;;16.71;49.91
8069;BME280;4077;43.702;24.896;2023-04-10T13:12:13;99542.78;;;16.66;47.75
8069;BME280;4077;43.702;24.896;2023-04-10T13:14:40;99541.91;;;16.70;47.40
8069;BME280;4077;43.702;24.896;2023-04-10T13:17:05;99551.25;;;16.86;47.70
8069;BME280;4077;43.702;24.896;2023-04-10T13:19:31;99554.63;;;16.94;46.11
8069;BME280;4077;43.702;24.896;2023-04-10T13:21:56;99548.47;;;17.00;45.91
8069;BME280;4077;43.702;24.896;2023-04-10T13:24:23;99546.59;;;17.10;46.05
8069;BME280;4077;43.702;24.896;2023-04-10T13:26:49;99541.97;;;17.30;46.83
8069;BME280;4077;43.702;24.896;2023-04-10T13:29:14;99529.69;;;17.35;45.68
8069;BME280;4077;43.702;24.896;2023-04-10T13:31:40;99533.41;;;17.19;45.94
8069;BME280;4077;43.702;24.896;2023-04-10T13:34:05;99523.13;;;17.10;46.03
8069;BME280;4077;43.702;24.896;2023-04-10T13:36:31;99531.94;;;17.03;47.30
8069;BME280;4077;43.702;24.896;2023-04-10T13:38:56;99531.25;;;16.88;47.77
8069;BME280;4077;43.702;24.896;2023-04-10T13:41:21;99535.75;;;16.74;48.65
8069;BME280;4077;43.702;24.896;2023-04-10T13:43:48;99530.63;;;16.68;50.08
8069;BME280;4077;43.702;24.896;2023-04-10T13:46:13;99518.63;;;16.52;50.88
8069;BME280;4077;43.702;24.896;2023-04-10T13:48:38;99525.66;;;16.47;48.86
8069;BME280;4077;43.702;24.896;2023-04-10T13:51:08;99527.34;;;16.51;49.12
8069;BME280;4077;43.702;24.896;2023-04-10T13:53:33;99527.47;;;16.38;48.84
8069;BME280;4077;43.702;24.896;2023-04-10T13:55:59;99516.16;;;16.42;50.41
8069;BME280;4077;43.702;24.896;2023-04-10T13:58:25;99511.78;;;16.45;49.71
8069;BME280;4077;43.702;24.896;2023-04-10T14:00:52;99515.13;;;16.56;48.68